Time;durP1;ratioP1;P1;durP2;ratioP2;P2;SDS_P1;SDS_P2;PMS_P1;PMS_P2;Temp;Humidity;BMP_temperature;BMP_pressure;BME280_temperature;BME280_humidity;BME280_pressure;Samples;Min_cycle;Max_cycle;Signal;HPM_P1;HPM_P2
2023/04/10 00:01:31;;;;;;;11.32;6.05;;;11.50;73.60;;;;;;5114389;28;20032;-74
2023/04/10 00:03:56;;;;;;;12.73;6.28;;;11.50;73.50;;;;;;5113414;28;20035;-74
2023/04/10 00:06:23;;;;;;;9.95;5.75;;;11.40;73.60;;;;;;5114303;28;20036;-74
2023/04/10 00:08:49;;;;;;;11.32;6.03;;;11.50;73.20;;;;;;5114241;28;20020;-74
2023/04/10 00:11:15;;;;;;;9.32;5.78;;;11.50;73.20;;;;;;5114195;28;20024;-74
2023/04/10 00:13:40;;;;;;;10.98;6.63;;;11.40;73.40;;;;;;5114225;28;20027;-74
2023/04/10 00:16:06;;;;;;;9.57;5.53;;;11.40;74.50;;;;;;5113173;28;20032;-74
2023/04/10 00:18:32;;;;;;;10.82;6.10;;;11.40;73.50;;;;;;5113101;28;20054;-74
2023/04/10 00:20:57;;;;;;;10.27;5.82;;;11.40;73.80;;;;;;5114179;28;20028;-74
2023/04/10 00:23:23;;;;;;;10.32;5.50;;;11.40;73.80;;;;;;5114009;28;20106;-74
2023/04/10 00:25:48;;;;;;;11.38;6.22;;;11.50;73.30;;;;;;5113039;28;20044;-74
2023/04/10 00:28:16;;;;;;;11.00;5.65;;;11.50;73.40;;;;;;5113985;28;20032;-74
2023/04/10 00:30:41;;;;;;;11.80;5.47;;;11.60;73.40;;;;;;5112915;28;20154;-74
2023/04/10 00:33:07;;;;;;;9.75;5.20;;;11.50;73.20;;;;;;5112806;28;20024;-74
2023/04/10 00:35:32;;;;;;;11.85;5.95;;;11.50;72.70;;;;;;5113829;28;20058;-74
2023/04/10 00:37:58;;;;;;;10.05;5.40;;;11.50;73.00;;;;;;5112840;28;20051;-74
2023/04/10 00:40:24;;;;;;;12.45;5.88;;;11.50;73.00;;;;;;5112831;28;20049;-74
2023/04/10 00:42:50;;;;;;;10.35;5.50;;;11.50;72.00;;;;;;5112714;28;20055;-74
2023/04/10 00:45:15;;;;;;;10.90;5.95;;;11.50;72.60;;;;;;5113595;28;20028;-74
2023/04/10 00:47:41;;;;;;;11.43;5.82;;;11.50;72.80;;;;;;5113585;28;20036;-74
2023/04/10 00:50:07;;;;;;;12.20;6.32;;;11.60;72.80;;;;;;5113625;28;20024;-74
2023/04/10 00:52:33;;;;;;;10.32;5.88;;;11.60;73.00;;;;;;5113601;28;20083;-74
2023/04/10 00:54:58;;;;;;;11.30;6.32;;;11.60;73.20;;;;;;5113456;28;20028;-74
2023/04/10 00:57:25;;;;;;;10.27;6.00;;;11.60;72.60;;;;;;5113551;28;20046;-74
2023/04/10 00:59:52;;;;;;;9.75;5.28;;;11.50;72.70;;;;;;5113569;28;20020;-74
2023/04/10 01:02:18;;;;;;;10.80;5.57;;;11.50;73.30;;;;;;5112565;28;20031;-74
2023/04/10 01:04:45;;;;;;;13.07;6.40;;;11.50;73.30;;;;;;5112627;28;20020;-74
2023/04/10 01:07:53;;;;;;;13.02;6.88;;;11.50;73.40;;;;;;5113457;28;20050;-74
2023/04/10 01:10:37;;;;;;;15.57;7.40;;;11.50;73.10;;;;;;5074312;28;20119;-74
2023/04/10 01:13:22;;;;;;;15.10;7.82;;;11.40;73.10;;;;;;5113587;28;20061;-74
2023/04/10 01:15:57;;;;;;;15.20;7.13;;;11.20;73.20;;;;;;5113431;28;20020;-74
2023/04/10 01:18:48;;;;;;;16.85;8.05;;;11.20;73.40;;;;;;5113423;28;20024;-74
2023/04/10 01:21:16;;;;;;;19.35;9.07;;;11.20;73.60;;;;;;5113477;28;20024;-74
2023/04/10 01:24:06;;;;;;;21.00;9.43;;;11.10;73.90;;;;;;5113374;28;20031;-74
2023/04/10 01:27:00;;;;;;;18.30;9.18;;;11.20;74.10;;;;;;5113499;28;20044;-74
2023/04/10 01:29:29;;;;;;;19.15;8.52;;;11.20;74.30;;;;;;5113352;28;20035;-74
2023/04/10 01:32:06;;;;;;;18.40;8.98;;;11.20;74.10;;;;;;5113225;28;20025;-74
2023/04/10 01:34:40;;;;;;;18.95;8.75;;;11.20;74.10;;;;;;5112196;28;20020;-74
2023/04/10 01:37:20;;;;;;;18.63;8.65;;;11.20;74.00;;;;;;5113248;28;20024;-74
2023/04/10 01:40:09;;;;;;;19.60;8.68;;;11.20;73.80;;;;;;5113188;28;20039;-74
2023/04/10 01:42:40;;;;;;;16.95;8.68;;;11.10;74.10;;;;;;5112426;28;20055;-74
2023/04/10 01:45:08;;;;;;;16.25;7.97;;;11.10;74.50;;;;;;5113173;28;20028;-74
2023/04/10 01:47:34;;;;;;;17.60;8.27;;;11.10;74.40;;;;;;5112096;28;20063;-74
2023/04/10 01:50:00;;;;;;;16.92;8.75;;;11.10;74.30;;;;;;5113228;28;20020;-74
2023/04/10 01:52:27;;;;;;;14.35;7.75;;;11.10;74.30;;;;;;5112027;28;20023;-74
2023/04/10 01:54:53;;;;;;;13.80;7.72;;;11.10;74.40;;;;;;5114992;28;20028;-74
2023/04/10 01:57:19;;;;;;;14.18;7.72;;;11.10;73.90;;;;;;5115933;28;20024;-74
2023/04/10 01:59:45;;;;;;;14.20;7.45;;;11.10;74.10;;;;;;5116793;28;20020;-74
2023/04/10 02:02:11;;;;;;;14.45;6.80;;;11.10;74.50;;;;;;5116760;28;20031;-74
2023/04/10 02:04:37;;;;;;;12.88;6.70;;;11.10;74.30;;;;;;5115784;28;20032;-74
2023/04/10 02:07:14;;;;;;;14.43;7.65;;;11.00;73.70;;;;;;5116689;28;20025;-74
2023/04/10 02:09:50;;;;;;;13.23;6.53;;;10.90;74.00;;;;;;5116577;28;20052;-74
2023/04/10 02:12:37;;;;;;;13.23;6.28;;;10.80;74.30;;;;;;5116697;28;20020;-74
2023/04/10 02:15:07;;;;;;;13.30;6.90;;;10.90;74.60;;;;;;5115769;28;20039;-74
2023/04/10 02:17:34;;;;;;;12.82;6.78;;;10.80;74.80;;;;;;5116641;28;20023;-74
2023/04/10 02:20:02;;;;;;;14.23;7.15;;;10.80;75.20;;;;;;5116422;28;20036;-74
2023/04/10 02:22:28;;;;;;;14.30;7.22;;;10.80;74.90;;;;;;5116556;28;20024;-74
2023/04/10 02:24:54;;;;;;;13.43;7.20;;;10.80;74.40;;;;;;5116290;28;20027;-74
2023/04/10 02:27:30;;;;;;;18.08;8.43;;;10.80;74.40;;;;;;5116260;28;20028;-74
2023/04/10 02:29:55;;;;;;;20.27;9.02;;;10.80;74.60;;;;;;5115444;28;20036;-74
2023/04/10 02:32:22;;;;;;;20.65;9.10;;;10.80;74.70;;;;;;5116212;28;20400;-74
2023/04/10 02:34:48;;;;;;;19.58;9.75;;;10.70;75.00;;;;;;5116063;28;20035;-74
2023/04/10 02:37:13;;;;;;;19.25;8.63;;;10.70;74.80;;;;;;5116060;28;20048;-74
2023/04/10 02:39:40;;;;;;;14.85;7.20;;;10.70;75.10;;;;;;5116050;28;20029;-74
2023/04/10 02:42:06;;;;;;;12.32;6.32;;;10.60;75.40;;;;;;5115761;28;20040;-74
2023/04/10 02:44:31;;;;;;;11.13;6.20;;;10.60;75.60;;;;;;5115959;28;20086;-74
2023/04/10 02:46:57;;;;;;;11.25;5.82;;;10.60;75.60;;;;;;5115864;28;20039;-74
2023/04/10 02:49:23;;;;;;;9.02;5.10;;;10.50;75.80;;;;;;5115755;28;20078;-74
2023/04/10 02:51:48;;;;;;;9.98;5.00;;;10.50;76.00;;;;;;5115774;28;20024;-74
2023/04/10 02:54:14;;;;;;;10.00;5.53;;;10.50;76.10;;;;;;5114852;28;20024;-74
2023/04/10 02:56:40;;;;;;;10.75;5.85;;;10.60;76.30;;;;;;5115688;28;20027;-74
2023/04/10 02:59:05;;;;;;;11.02;5.43;;;10.60;76.20;;;;;;5115712;28;20119;-74
2023/04/10 03:01:31;;;;;;;10.35;5.53;;;10.60;76.10;;;;;;5115628;28;20024;-74
2023/04/10 03:03:57;;;;;;;11.25;5.57;;;10.70;76.00;;;;;;5114525;28;20369;-74
2023/04/10 03:06:26;;;;;;;12.52;5.97;;;10.70;75.70;;;;;;5114636;28;20177;-74
2023/04/10 03:08:52;;;;;;;10.68;5.78;;;10.70;75.90;;;;;;5114475;28;20020;-74
2023/04/10 03:11:17;;;;;;;11.82;6.47;;;10.60;76.10;;;;;;5115455;28;20035;-74
2023/04/10 03:13:43;;;;;;;10.77;5.95;;;10.70;76.20;;;;;;5114328;28;20123;-74
2023/04/10 03:16:08;;;;;;;11.75;5.82;;;10.70;76.20;;;;;;5097649;28;20032;-74
2023/04/10 03:18:34;;;;;;;10.93;5.82;;;10.70;75.90;;;;;;5114231;28;20032;-74
2023/04/10 03:21:01;;;;;;;12.25;6.70;;;10.70;76.00;;;;;;5115209;28;20036;-74
2023/04/10 03:23:27;;;;;;;12.07;5.65;;;10.60;76.20;;;;;;5115186;28;20048;-74
2023/04/10 03:25:53;;;;;;;12.30;6.43;;;10.70;76.10;;;;;;5115112;28;20028;-74
2023/04/10 03:28:22;;;;;;;10.00;5.75;;;10.70;75.90;;;;;;5115045;28;20031;-74
2023/04/10 03:30:49;;;;;;;11.35;5.80;;;10.70;75.90;;;;;;5115017;28;20034;-74
2023/04/10 03:33:15;;;;;;;11.50;5.95;;;10.70;75.90;;;;;;5114925;28;20053;-74
2023/04/10 03:35:41;;;;;;;11.65;5.95;;;10.70;75.70;;;;;;5114914;28;20028;-74
2023/04/10 03:38:07;;;;;;;10.57;5.88;;;10.80;75.70;;;;;;5113952;28;20040;-74
2023/04/10 03:40:33;;;;;;;11.35;5.78;;;10.70;75.60;;;;;;5113716;28;20017;-75
2023/04/10 03:42:59;;;;;;;11.13;6.10;;;10.70;75.90;;;;;;5114632;28;20052;-74
2023/04/10 03:45:25;;;;;;;11.63;6.45;;;10.60;76.00;;;;;;5114731;28;20020;-74
2023/04/10 03:47:51;;;;;;;13.80;5.95;;;10.60;76.20;;;;;;5114753;28;20035;-74
2023/04/10 03:50:17;;;;;;;11.13;6.05;;;10.60;76.50;;;;;;5114839;28;20028;-74
2023/04/10 03:52:43;;;;;;;12.95;6.00;;;10.60;76.60;;;;;;5114785;28;20035;-74
2023/04/10 03:55:08;;;;;;;12.43;6.68;;;10.50;76.70;;;;;;5114576;28;20028;-74
2023/04/10 03:57:34;;;;;;;10.98;6.05;;;10.50;76.90;;;;;;5114648;28;20024;-74
2023/04/10 04:00:00;;;;;;;11.70;6.10;;;10.40;77.00;;;;;;5114497;28;20027;-74
2023/04/10 04:02:25;;;;;;;12.23;6.93;;;10.40;77.20;;;;;;5114451;28;20077;-75
2023/04/10 04:04:52;;;;;;;13.80;6.28;;;10.40;77.00;;;;;;5114394;28;20047;-75
2023/04/10 04:07:17;;;;;;;11.32;5.63;;;10.40;77.00;;;;;;5114357;28;20031;-75
2023/04/10 04:09:44;;;;;;;12.38;6.45;;;10.40;77.00;;;;;;5114222;28;20115;-74
2023/04/10 04:12:09;;;;;;;11.20;6.07;;;10.40;77.20;;;;;;5114348;28;20024;-74
2023/04/10 04:14:35;;;;;;;11.60;6.47;;;10.40;77.00;;;;;;5114311;28;20054;-74
2023/04/10 04:17:01;;;;;;;13.88;6.57;;;10.40;77.00;;;;;;5114041;28;20050;-74
2023/04/10 04:19:26;;;;;;;10.50;5.82;;;10.40;76.90;;;;;;5114263;28;20037;-74
2023/04/10 04:21:52;;;;;;;12.68;6.03;;;10.30;76.80;;;;;;5114096;28;20039;-74
2023/04/10 04:24:17;;;;;;;11.73;5.90;;;10.30;76.90;;;;;;5114022;28;20036;-74
2023/04/10 04:26:43;;;;;;;13.25;6.60;;;10.30;77.10;;;;;;5114132;28;20043;-74
2023/04/10 04:29:09;;;;;;;9.40;5.32;;;10.30;77.10;;;;;;5113902;28;20043;-74
2023/04/10 04:31:34;;;;;;;11.85;5.80;;;10.30;77.20;;;;;;5113936;28;20024;-74
2023/04/10 04:34:00;;;;;;;10.38;5.88;;;10.30;77.20;;;;;;5113806;28;20036;-74
2023/04/10 04:36:26;;;;;;;14.18;6.07;;;10.20;77.30;;;;;;5113878;28;20024;-74
2023/04/10 04:38:52;;;;;;;11.38;6.28;;;10.10;77.10;;;;;;5113790;28;20024;-75
2023/04/10 04:41:18;;;;;;;11.30;5.78;;;10.10;77.50;;;;;;5112573;28;20040;-75
2023/04/10 04:43:44;;;;;;;11.60;5.63;;;10.10;78.30;;;;;;5113758;28;20085;-74
2023/04/10 04:46:09;;;;;;;12.02;6.38;;;10.10;77.70;;;;;;5113774;28;20048;-74
2023/04/10 04:48:35;;;;;;;12.15;6.03;;;10.10;77.60;;;;;;5112674;28;20036;-74
2023/04/10 04:51:01;;;;;;;14.82;5.80;;;10.10;77.60;;;;;;5113648;28;20028;-74
2023/04/10 04:53:26;;;;;;;9.60;5.70;;;10.10;77.70;;;;;;5113720;28;20035;-74
2023/04/10 04:55:52;;;;;;;16.42;6.63;;;10.20;77.70;;;;;;5113606;28;20028;-74
2023/04/10 04:58:19;;;;;;;11.35;5.78;;;10.10;77.60;;;;;;5113561;28;20032;-74
2023/04/10 05:00:44;;;;;;;13.30;6.15;;;10.20;77.70;;;;;;5113570;28;20043;-74
2023/04/10 05:03:10;;;;;;;11.60;5.93;;;10.10;77.70;;;;;;5113509;28;20035;-74
2023/04/10 05:05:36;;;;;;;12.80;5.95;;;10.10;77.70;;;;;;5113517;28;20028;-74
2023/04/10 05:08:02;;;;;;;11.65;6.07;;;10.10;77.80;;;;;;5113371;28;20036;-74
2023/04/10 05:10:27;;;;;;;12.93;6.03;;;10.10;77.80;;;;;;5112530;28;20036;-74
2023/04/10 05:12:53;;;;;;;14.77;6.05;;;10.10;78.20;;;;;;5113417;28;20092;-74
2023/04/10 05:15:18;;;;;;;15.13;7.28;;;10.00;78.30;;;;;;5113390;28;20035;-74
2023/04/10 05:17:44;;;;;;;14.45;5.95;;;10.00;78.50;;;;;;5113366;28;20028;-74
2023/04/10 05:20:10;;;;;;;12.68;6.00;;;10.00;78.50;;;;;;5113385;28;20023;-74
2023/04/10 05:22:36;;;;;;;13.70;6.60;;;10.00;78.60;;;;;;5113387;28;20028;-74
2023/04/10 05:25:02;;;;;;;11.10;6.10;;;10.00;78.70;;;;;;5113459;28;20016;-74
2023/04/10 05:27:27;;;;;;;11.90;6.03;;;10.00;78.80;;;;;;5112232;28;20477;-74
2023/04/10 05:29:53;;;;;;;10.95;6.20;;;10.00;78.80;;;;;;5115272;28;20028;-74
2023/04/10 05:32:19;;;;;;;13.98;6.32;;;10.00;78.80;;;;;;5116430;28;20032;-74
2023/04/10 05:34:44;;;;;;;12.63;5.93;;;10.00;78.90;;;;;;5116393;28;20024;-74
2023/04/10 05:37:11;;;;;;;13.68;6.05;;;10.00;79.00;;;;;;5116199;28;20119;-75
2023/04/10 05:39:37;;;;;;;11.13;5.85;;;10.00;78.90;;;;;;5116295;28;20027;-75
2023/04/10 05:42:03;;;;;;;11.45;5.75;;;10.00;78.90;;;;;;5116928;28;20160;-75
2023/04/10 05:44:30;;;;;;;13.77;6.28;;;10.00;79.00;;;;;;5117094;28;20032;-75
2023/04/10 05:46:55;;;;;;;11.25;5.45;;;10.00;79.10;;;;;;5116053;28;20041;-75
2023/04/10 05:49:21;;;;;;;11.20;6.00;;;10.00;79.20;;;;;;5116947;28;20040;-75
2023/04/10 05:51:49;;;;;;;11.48;5.75;;;9.90;79.10;;;;;;5117053;28;20016;-75
2023/04/10 05:54:15;;;;;;;13.00;6.72;;;10.00;79.50;;;;;;5116940;28;20024;-75
2023/04/10 05:56:41;;;;;;;12.73;6.72;;;10.00;79.70;;;;;;5116041;28;20024;-75
2023/04/10 05:59:07;;;;;;;14.60;6.15;;;10.00;79.40;;;;;;5116862;28;20028;-74
2023/04/10 06:01:32;;;;;;;14.30;6.85;;;10.00;79.50;;;;;;5115758;28;20059;-75
2023/04/10 06:03:58;;;;;;;19.73;7.15;;;10.00;79.50;;;;;;5116713;28;20088;-75
2023/04/10 06:06:25;;;;;;;15.05;6.25;;;10.00;79.30;;;;;;5115666;28;20036;-75
2023/04/10 06:08:51;;;;;;;11.73;6.00;;;9.90;79.90;;;;;;5116609;28;20032;-75
2023/04/10 06:11:17;;;;;;;13.45;6.47;;;9.90;80.00;;;;;;5116728;28;20051;-75
2023/04/10 06:13:42;;;;;;;12.13;6.35;;;9.90;80.00;;;;;;5116607;28;20028;-75
2023/04/10 06:16:08;;;;;;;13.30;6.00;;;10.00;80.20;;;;;;5116489;28;20020;-75
2023/04/10 06:18:34;;;;;;;13.70;6.38;;;10.00;80.10;;;;;;5116482;28;20028;-75
2023/04/10 06:21:00;;;;;;;11.68;6.18;;;10.00;80.40;;;;;;5116444;28;20074;-75
2023/04/10 06:23:27;;;;;;;10.32;5.93;;;9.90;80.50;;;;;;5115282;28;20028;-76
2023/04/10 06:25:54;;;;;;;13.18;6.20;;;9.90;80.80;;;;;;5115296;28;20035;-77
2023/04/10 06:28:20;;;;;;;12.25;6.70;;;9.90;81.30;;;;;;5116195;28;20054;-79
2023/04/10 06:30:45;;;;;;;13.18;5.97;;;10.00;81.40;;;;;;5116243;28;20051;-77
2023/04/10 06:33:11;;;;;;;9.93;5.53;;;10.00;81.30;;;;;;5116090;28;20031;-77
2023/04/10 06:35:37;;;;;;;11.40;6.22;;;10.00;80.20;;;;;;5116111;28;20032;-77
2023/04/10 06:38:03;;;;;;;13.45;6.47;;;10.10;80.50;;;;;;5116132;28;20028;-77
2023/04/10 06:40:29;;;;;;;11.90;5.90;;;10.10;79.80;;;;;;5113923;28;20027;-77
2023/04/10 06:42:55;;;;;;;11.50;6.13;;;10.10;79.40;;;;;;5115596;28;20037;-77
2023/04/10 06:45:21;;;;;;;11.98;5.90;;;10.10;80.50;;;;;;5115956;28;20035;-78
2023/04/10 06:47:47;;;;;;;12.88;6.30;;;10.10;79.70;;;;;;5114887;28;20543;-78
2023/04/10 06:50:13;;;;;;;12.00;6.45;;;10.10;80.00;;;;;;5114840;28;20129;-77
2023/04/10 06:52:38;;;;;;;9.93;5.70;;;10.20;79.70;;;;;;5115924;28;20020;-77
2023/04/10 06:55:04;;;;;;;12.45;6.25;;;10.30;79.90;;;;;;5115772;28;20032;-78
2023/04/10 06:57:30;;;;;;;11.82;5.88;;;10.30;79.90;;;;;;5114570;28;20033;-78
2023/04/10 06:59:56;;;;;;;16.23;6.82;;;10.40;80.40;;;;;;5115592;28;20028;-77
2023/04/10 07:02:22;;;;;;;13.50;6.25;;;10.50;80.90;;;;;;5115623;28;20055;-77
2023/04/10 07:04:47;;;;;;;13.70;6.32;;;10.50;80.20;;;;;;5114573;28;20055;-77
2023/04/10 07:07:14;;;;;;;11.25;5.63;;;10.60;78.50;;;;;;5115609;28;20044;-78
2023/04/10 07:09:41;;;;;;;11.27;5.70;;;10.60;79.00;;;;;;5115436;28;20017;-78
2023/04/10 07:12:07;;;;;;;11.50;5.90;;;10.60;78.30;;;;;;5115589;28;20035;-77
2023/04/10 07:14:35;;;;;;;11.85;5.88;;;10.70;78.80;;;;;;5114402;28;20024;-78
2023/04/10 07:17:01;;;;;;;12.65;5.50;;;10.70;78.30;;;;;;5115492;28;20027;-78
2023/04/10 07:19:27;;;;;;;11.75;6.18;;;10.80;78.70;;;;;;5115291;28;20028;-78
2023/04/10 07:21:53;;;;;;;11.82;6.60;;;10.80;78.00;;;;;;5114201;28;20039;-77
2023/04/10 07:24:18;;;;;;;10.15;5.55;;;10.90;77.40;;;;;;5115182;28;20032;-77
2023/04/10 07:26:45;;;;;;;12.23;6.25;;;10.90;77.00;;;;;;5114228;28;20036;-78
2023/04/10 07:29:11;;;;;;;11.40;5.93;;;10.90;76.70;;;;;;5115047;28;20028;-78
2023/04/10 07:31:36;;;;;;;12.38;6.50;;;11.00;77.80;;;;;;5114119;28;20024;-78
2023/04/10 07:34:02;;;;;;;12.10;6.72;;;11.00;77.70;;;;;;5115090;28;20038;-77
2023/04/10 07:36:28;;;;;;;9.05;5.15;;;11.10;78.00;;;;;;5114023;28;20024;-77
2023/04/10 07:38:55;;;;;;;10.68;5.20;;;11.10;76.50;;;;;;5114891;28;20035;-78
2023/04/10 07:41:21;;;;;;;12.43;6.32;;;11.10;76.20;;;;;;5114716;28;20054;-78
2023/04/10 07:43:46;;;;;;;11.07;5.40;;;11.20;76.00;;;;;;5114874;28;20020;-78
2023/04/10 07:46:12;;;;;;;12.43;5.95;;;11.20;76.40;;;;;;5114786;28;20035;-78
2023/04/10 07:48:38;;;;;;;10.77;6.30;;;11.30;75.80;;;;;;5114618;28;20032;-77
2023/04/10 07:51:04;;;;;;;13.75;7.13;;;11.30;75.40;;;;;;5114619;28;20028;-76
2023/04/10 07:53:30;;;;;;;11.68;6.60;;;11.40;76.30;;;;;;5113360;28;20020;-75
2023/04/10 07:55:55;;;;;;;13.15;6.65;;;11.40;76.10;;;;;;5113616;28;20028;-75
2023/04/10 07:58:21;;;;;;;11.18;6.03;;;11.50;76.70;;;;;;5114521;28;20020;-75
2023/04/10 08:00:47;;;;;;;12.25;6.60;;;11.60;74.90;;;;;;5114587;28;20480;-75
2023/04/10 08:03:14;;;;;;;9.90;5.15;;;11.70;74.70;;;;;;5096641;28;20055;-75
2023/04/10 08:05:40;;;;;;;13.88;7.63;;;11.70;73.60;;;;;;5113259;28;20029;-75
2023/04/10 08:08:05;;;;;;;10.38;5.90;;;11.90;73.70;;;;;;5114271;28;20034;-75
2023/04/10 08:10:31;;;;;;;10.90;5.68;;;11.90;74.00;;;;;;5114283;28;20024;-75
2023/04/10 08:12:57;;;;;;;12.68;6.30;;;12.00;76.10;;;;;;5114225;28;20053;-75
2023/04/10 08:15:22;;;;;;;8.00;4.47;;;12.20;74.60;;;;;;5113338;28;20020;-76
2023/04/10 08:17:48;;;;;;;9.60;5.40;;;12.30;73.70;;;;;;5114137;28;20411;-76
2023/04/10 08:20:13;;;;;;;10.18;5.53;;;12.30;71.80;;;;;;5114112;28;20036;-76
2023/04/10 08:22:39;;;;;;;8.77;4.95;;;12.50;71.50;;;;;;5113088;28;20016;-76
2023/04/10 08:25:05;;;;;;;10.40;4.50;;;12.50;71.10;;;;;;5114029;28;20024;-76
2023/04/10 08:27:30;;;;;;;10.85;5.68;;;12.60;70.70;;;;;;5113053;28;20028;-76
2023/04/10 08:29:56;;;;;;;9.77;5.88;;;12.70;72.50;;;;;;5112943;28;20036;-76
2023/04/10 08:32:22;;;;;;;10.25;5.28;;;12.70;72.30;;;;;;5113907;28;20020;-77
2023/04/10 08:34:49;;;;;;;9.90;5.32;;;12.80;69.40;;;;;;5112859;28;20074;-76
2023/04/10 08:37:14;;;;;;;8.48;5.22;;;12.90;71.30;;;;;;5113880;28;20024;-77
2023/04/10 08:39:40;;;;;;;10.90;6.28;;;12.90;70.90;;;;;;5112739;28;20036;-77
2023/04/10 08:42:07;;;;;;;10.52;5.13;;;12.90;69.80;;;;;;5113507;28;20060;-77
2023/04/10 08:44:35;;;;;;;12.63;7.30;;;13.00;68.60;;;;;;5113733;28;20031;-77
2023/04/10 08:47:01;;;;;;;22.92;14.95;;;13.00;71.80;;;;;;5112722;28;20044;-77
2023/04/10 08:49:39;;;;;;;15.10;8.48;;;13.00;71.50;;;;;;5112681;28;20032;-77
2023/04/10 08:52:16;;;;;;;9.60;5.10;;;13.00;70.60;;;;;;5112689;28;20052;-77
2023/04/10 08:54:47;;;;;;;13.43;5.43;;;13.00;70.40;;;;;;5113690;28;20080;-77
2023/04/10 08:57:19;;;;;;;8.80;5.53;;;13.00;69.50;;;;;;5113632;28;20020;-76
2023/04/10 08:59:46;;;;;;;9.23;5.40;;;13.10;68.50;;;;;;5112660;28;20384;-76
2023/04/10 09:02:12;;;;;;;9.75;5.32;;;13.20;68.00;;;;;;5113574;28;20024;-77
2023/04/10 09:04:38;;;;;;;8.82;4.68;;;13.20;68.20;;;;;;5112760;28;20027;-77
2023/04/10 09:07:04;;;;;;;9.65;6.10;;;13.30;69.00;;;;;;5112474;28;20440;-77
2023/04/10 09:09:33;;;;;;;7.88;4.50;;;13.40;70.30;;;;;;5113373;28;20028;-77
2023/04/10 09:12:01;;;;;;;8.85;5.05;;;13.50;70.40;;;;;;5112386;28;20020;-77
2023/04/10 09:14:29;;;;;;;12.38;5.63;;;13.50;68.10;;;;;;5113350;28;20092;-77
2023/04/10 09:17:10;;;;;;;8.43;4.65;;;13.40;67.10;;;;;;5113381;28;20028;-77
2023/04/10 09:19:35;;;;;;;8.93;4.18;;;13.50;67.80;;;;;;5112247;28;20024;-76
2023/04/10 09:22:01;;;;;;;9.35;5.45;;;13.50;68.10;;;;;;5113323;28;20040;-76
2023/04/10 09:24:27;;;;;;;9.15;5.10;;;13.50;68.10;;;;;;5113315;28;20052;-76
2023/04/10 09:26:53;;;;;;;8.35;4.95;;;13.60;69.00;;;;;;5113242;28;20121;-76
2023/04/10 09:29:19;;;;;;;9.48;4.72;;;13.60;70.50;;;;;;5113206;28;20053;-76
2023/04/10 09:31:45;;;;;;;7.75;4.63;;;13.60;69.50;;;;;;5113316;28;20050;-76
2023/04/10 09:34:14;;;;;;;9.43;5.32;;;13.80;68.80;;;;;;5113154;28;20024;-76
2023/04/10 09:36:42;;;;;;;9.18;5.43;;;13.80;69.30;;;;;;5113537;28;20032;-76
2023/04/10 09:39:10;;;;;;;9.82;5.70;;;13.80;67.30;;;;;;5113209;28;20028;-76
2023/04/10 09:41:54;;;;;;;26.63;20.95;;;13.80;67.70;;;;;;5112979;28;20051;-76
2023/04/10 09:44:31;;;;;;;180.38;105.90;;;13.90;68.00;;;;;;5113185;28;20075;-76
2023/04/10 09:47:20;;;;;;;9.57;5.38;;;13.90;68.30;;;;;;5113273;28;20031;-76
2023/04/10 09:49:47;;;;;;;9.43;5.75;;;13.80;67.80;;;;;;5112084;28;20024;-76
2023/04/10 09:52:32;;;;;;;10.57;7.60;;;13.80;66.50;;;;;;5113068;28;20071;-76
2023/04/10 09:55:03;;;;;;;9.43;5.32;;;13.90;68.50;;;;;;5113093;28;20029;-76
2023/04/10 09:57:30;;;;;;;7.60;4.47;;;13.90;67.30;;;;;;5113190;28;20021;-76
2023/04/10 09:59:59;;;;;;;9.52;6.20;;;13.90;67.30;;;;;;5112966;28;20084;-76
2023/04/10 10:02:27;;;;;;;8.93;5.63;;;14.00;68.50;;;;;;5112950;28;20054;-76
2023/04/10 10:04:53;;;;;;;5.45;3.67;;;14.00;68.10;;;;;;5112995;28;20035;-76
2023/04/10 10:07:21;;;;;;;8.98;5.10;;;14.10;66.50;;;;;;5112965;28;20027;-76
2023/04/10 10:09:49;;;;;;;8.77;5.28;;;14.10;67.50;;;;;;5112872;28;20030;-76
2023/04/10 10:12:30;;;;;;;7.80;5.30;;;14.10;67.80;;;;;;5112780;28;20028;-76
2023/04/10 10:14:59;;;;;;;7.28;4.75;;;14.30;67.80;;;;;;5113307;28;20110;-76
2023/04/10 10:17:33;;;;;;;9.27;6.38;;;14.30;68.20;;;;;;5116484;28;20046;-76
2023/04/10 10:20:07;;;;;;;10.00;5.88;;;14.30;66.70;;;;;;5116487;28;20027;-76
2023/04/10 10:22:34;;;;;;;20.15;14.05;;;14.30;67.20;;;;;;5116612;28;20046;-76
2023/04/10 10:25:01;;;;;;;24.45;16.65;;;14.40;67.90;;;;;;5116360;28;20079;-76
2023/04/10 10:27:30;;;;;;;8.52;5.93;;;14.50;69.00;;;;;;5116260;28;20039;-75
2023/04/10 10:29:59;;;;;;;11.88;8.90;;;14.50;68.10;;;;;;5116081;28;20430;-76
2023/04/10 10:32:26;;;;;;;7.25;4.45;;;14.70;70.60;;;;;;5116208;28;20020;-76
2023/04/10 10:34:52;;;;;;;10.35;5.70;;;14.70;71.10;;;;;;5116126;28;20071;-75
2023/04/10 10:37:22;;;;;;;9.82;6.32;;;14.60;66.60;;;;;;5116055;28;20084;-76
2023/04/10 10:40:16;;;;;;;9.57;5.72;;;14.60;68.60;;;;;;5116234;28;20028;-76
2023/04/10 10:43:01;;;;;;;10.30;6.80;;;14.70;67.50;;;;;;5114705;28;20059;-76
2023/04/10 10:45:35;;;;;;;7.45;5.10;;;14.80;68.80;;;;;;5116129;28;20016;-76
2023/04/10 10:48:01;;;;;;;8.45;6.13;;;14.70;68.90;;;;;;5115907;28;20530;-76
2023/04/10 10:50:55;;;;;;;10.73;6.38;;;14.80;69.50;;;;;;5115845;28;20043;-75
2023/04/10 10:53:42;;;;;;;10.27;5.85;;;15.10;68.20;;;;;;5116000;28;20023;-76
2023/04/10 10:56:17;;;;;;;10.38;6.50;;;15.10;68.50;;;;;;5115778;28;20024;-76
2023/04/10 10:58:47;;;;;;;8.80;5.90;;;15.10;66.80;;;;;;5115689;28;20028;-76
2023/04/10 11:01:13;;;;;;;10.85;6.38;;;15.10;66.80;;;;;;5115656;28;20043;-76
2023/04/10 11:03:39;;;;;;;31.88;28.17;;;15.10;66.30;;;;;;5114665;28;20020;-77
2023/04/10 11:06:11;;;;;;;7.70;5.20;;;15.20;68.60;;;;;;5115577;28;20058;-77
2023/04/10 11:08:51;;;;;;;8.32;5.18;;;15.20;67.20;;;;;;5115470;28;20024;-76
2023/04/10 11:11:22;;;;;;;7.47;4.53;;;15.30;66.10;;;;;;5115421;28;20464;-76
2023/04/10 11:13:56;;;;;;;8.75;5.60;;;15.20;68.80;;;;;;5115380;28;20044;-76
2023/04/10 11:16:35;;;;;;;9.88;5.60;;;15.30;67.70;;;;;;5115390;28;20020;-76
2023/04/10 11:19:05;;;;;;;9.55;5.55;;;15.40;68.10;;;;;;5114283;28;20035;-76
2023/04/10 11:21:31;;;;;;;8.88;5.97;;;15.60;67.20;;;;;;5115322;28;20039;-76
2023/04/10 11:23:56;;;;;;;17.45;12.07;;;15.70;68.70;;;;;;5114289;28;20024;-76
2023/04/10 11:26:38;;;;;;;7.10;4.38;;;15.80;70.10;;;;;;5114766;28;20103;-75
2023/04/10 11:29:18;;;;;;;6.27;3.47;;;15.80;67.00;;;;;;5115069;28;20107;-76
2023/04/10 11:31:54;;;;;;;7.07;3.95;;;15.90;66.30;;;;;;5115081;28;20024;-76
2023/04/10 11:34:19;;;;;;;8.20;6.00;;;15.80;62.50;;;;;;5113962;28;20042;-76
2023/04/10 11:36:46;;;;;;;5.10;3.35;;;15.90;67.20;;;;;;5115007;28;20016;-76
2023/04/10 11:39:16;;;;;;;5.57;3.63;;;15.90;64.80;;;;;;5114045;28;20054;-76
2023/04/10 11:41:47;;;;;;;7.00;4.10;;;16.00;63.60;;;;;;5113694;28;20045;-75
2023/04/10 11:44:14;;;;;;;5.70;3.78;;;16.00;63.80;;;;;;5114880;28;20032;-76
2023/04/10 11:46:49;;;;;;;5.53;3.60;;;16.00;63.60;;;;;;5114806;28;20020;-76
2023/04/10 11:49:21;;;;;;;5.18;3.25;;;16.00;63.80;;;;;;5114723;28;20039;-76
2023/04/10 11:51:48;;;;;;;4.07;2.97;;;16.00;63.50;;;;;;5114703;28;20373;-76
2023/04/10 11:54:21;;;;;;;5.63;3.75;;;16.00;61.80;;;;;;5114631;28;20084;-76
2023/04/10 11:57:06;;;;;;;4.45;2.97;;;16.10;66.40;;;;;;5113637;28;20028;-75
2023/04/10 11:59:32;;;;;;;5.78;4.25;;;16.20;63.00;;;;;;5114596;28;20024;-76
2023/04/10 12:02:14;;;;;;;5.22;3.15;;;16.30;62.60;;;;;;5114536;28;20024;-76
2023/04/10 12:04:42;;;;;;;5.72;3.10;;;16.20;62.40;;;;;;5114504;28;20032;-76
2023/04/10 12:07:08;;;;;;;5.80;3.05;;;16.10;61.20;;;;;;5113481;28;20020;-76
2023/04/10 12:09:34;;;;;;;5.20;2.58;;;16.00;60.90;;;;;;5114268;28;20032;-76
2023/04/10 12:12:02;;;;;;;3.75;2.30;;;15.90;60.80;;;;;;5114408;28;20038;-76
2023/04/10 12:14:39;;;;;;;5.32;3.63;;;15.90;61.80;;;;;;5114322;28;20024;-76
2023/04/10 12:17:07;;;;;;;6.53;3.25;;;16.00;62.00;;;;;;5114267;28;20029;-76
2023/04/10 12:19:33;;;;;;;6.30;3.28;;;16.00;60.30;;;;;;5113161;28;20032;-75
2023/04/10 12:22:01;;;;;;;6.72;3.60;;;16.10;60.40;;;;;;5113181;28;20089;-75
2023/04/10 12:25:00;;;;;;;7.07;3.38;;;16.10;61.70;;;;;;5114089;28;20020;-75
2023/04/10 12:27:27;;;;;;;4.95;3.65;;;16.10;62.90;;;;;;5069773;28;20032;-76
2023/04/10 12:29:56;;;;;;;5.65;3.85;;;16.20;61.30;;;;;;5113892;28;20020;-75
2023/04/10 12:32:25;;;;;;;5.28;3.03;;;16.20;62.40;;;;;;5113992;28;20023;-76
2023/04/10 12:35:00;;;;;;;7.40;5.97;;;16.20;61.40;;;;;;5113849;28;20016;-75
2023/04/10 12:37:49;;;;;;;5.95;4.28;;;16.30;62.50;;;;;;5113847;28;20027;-76
2023/04/10 12:40:15;;;;;;;7.97;4.25;;;16.30;60.20;;;;;;5114054;28;20024;-76
2023/04/10 12:42:41;;;;;;;5.68;4.10;;;16.50;62.10;;;;;;5113652;28;20589;-76
2023/04/10 12:45:08;;;;;;;5.45;3.58;;;16.30;60.90;;;;;;5096145;28;20024;-76
2023/04/10 12:47:47;;;;;;;6.35;3.40;;;16.30;62.40;;;;;;5113778;28;20037;-75